North Bay Airport
CYYB : now visible

Airfield :











YOU CAN JOIN US ON...

 
LOGIN :

Register | Disclaimer

   EN    FR    IT 

 









Legend :    VFR   Marginal VFR   IFR   Intensive IFR   Very Intensive IFR
Visi :
Ceiling :
>= 8 km
>= 3000ft
5 to 8 km
1000 to 3000 ft
1500m to 5 km
500 to 1000 ft
800 to 1500m
200 to 500 ft
< 800m
< 200 ft
Symbols :   Thunderstorms  Fog  Heavy snow  Heavy precipitations  Wind > 20 kt







- Airport Elevation : 1215 ft
- IATA code : YYB


CYYB - North Bay

CURRENT METAR :
  • 212100Z 21006KT 200V300 30SM FEW045 25/20 A3008 RMK CU1 SLP187 DENSITY ALT 2500FT

EXPIRED METARs :
  • 212000Z VRB07KT 20SM FEW045 FEW280 26/19 A3009 RMK CU1CI1 SLP190 DENSITY ALT 2600FT
  • 211900Z 22007G16KT 20SM BKN044 BKN280 25/19 A3011 RMK SC5CI1 SLP197 DENSITY ALT 2500FT

TAF TAF CYYB
Valid from the 21 at 20:00 until the 22 at 08:00 UTC


211940Z 2120/2208 22010G20KT P6SM SCT020
FM220700 22012G22KT P6SM OVC025
TEMPO 2207/2208 5SM -SHRA BR BKN008 RMK NXT FCST BY 220200Z
No reported NOTAMs for that airfield.



MET'MAP, your aeronautical weather chart ! - Copyright ORBIFLY December 2007 - Disclaimer

ORBIFLY MET'MAP TEAM :

Programming & Development : Alexandra Zaïnal
Concept & Development : Baudouin d'Aumeries
Co-Development & Prog : Marc-Olivier Méhu
Technical & hardware support : Manuel Goepfert

Contact : metmap@orbifly.com




SOURCES & CREDITS :

   NOAA       Earth
Advisory